createdAt,value
2023-10-19T00:00:51.736Z,30.63
2023-10-19T00:03:21.471Z,32.67
2023-10-19T00:05:48.126Z,29.70
2023-10-19T00:08:21.909Z,33.67
2023-10-19T00:11:11.759Z,30.85
2023-10-19T00:13:40.190Z,33.70
2023-10-19T00:16:23.513Z,36.72
2023-10-19T00:18:51.118Z,33.53
2023-10-19T00:21:30.069Z,35.13
2023-10-19T00:23:58.862Z,33.85
2023-10-19T00:26:26.760Z,33.57
2023-10-19T00:28:56.825Z,31.75
2023-10-19T00:31:24.184Z,36.78
2023-10-19T00:33:55.696Z,34.42
2023-10-19T00:36:23.869Z,33.22
2023-10-19T00:38:51.583Z,35.50
2023-10-19T00:41:31.275Z,33.85
2023-10-19T00:44:03.977Z,32.00
2023-10-19T00:46:44.992Z,33.13
2023-10-19T00:49:16.554Z,32.30
2023-10-19T00:52:19.115Z,31.27
2023-10-19T00:54:49.915Z,29.48
2023-10-19T00:57:20.954Z,31.17
2023-10-19T00:59:48.722Z,33.80
2023-10-19T01:02:19.295Z,35.67
2023-10-19T01:04:52.078Z,32.03
2023-10-19T01:07:28.483Z,32.28
2023-10-19T01:10:05.210Z,34.33
2023-10-19T01:12:39.970Z,34.15
2023-10-19T01:15:18.509Z,31.48
2023-10-19T01:17:59.297Z,28.43
2023-10-19T01:20:30.467Z,29.08
2023-10-19T01:23:11.945Z,33.28
2023-10-19T01:26:11.490Z,34.25
2023-10-19T01:28:42.149Z,30.40
2023-10-19T01:31:24.013Z,29.67
2023-10-19T01:33:51.526Z,35.20
2023-10-19T01:36:26.040Z,32.33
2023-10-19T01:38:55.519Z,32.65
2023-10-19T01:41:24.791Z,31.35
2023-10-19T01:43:56.334Z,31.97
2023-10-19T01:46:32.373Z,33.30
2023-10-19T01:48:58.973Z,29.80
2023-10-19T01:51:27.863Z,32.30
2023-10-19T01:53:56.684Z,30.70
2023-10-19T01:56:23.985Z,29.03
2023-10-19T01:58:55.863Z,31.63
2023-10-19T02:01:28.753Z,30.30
2023-10-19T02:04:04.899Z,27.08
2023-10-19T02:06:41.459Z,31.55
2023-10-19T02:09:25.053Z,28.43
2023-10-19T02:11:54.517Z,32.75
2023-10-19T02:14:21.762Z,31.33
2023-10-19T02:16:54.315Z,33.28
2023-10-19T02:19:22.875Z,34.38
2023-10-19T02:21:54.298Z,27.97
2023-10-19T02:24:21.330Z,28.52
2023-10-19T02:26:52.756Z,31.00
2023-10-19T02:29:19.811Z,28.27
2023-10-19T02:31:48.823Z,31.08
2023-10-19T02:34:18.353Z,29.03
2023-10-19T02:36:46.651Z,30.65
2023-10-19T02:39:15.537Z,27.67
2023-10-19T02:41:47.846Z,31.05
2023-10-19T02:44:20.294Z,32.88
2023-10-19T02:46:59.344Z,29.17
2023-10-19T02:49:27.522Z,31.00
2023-10-19T02:51:54.778Z,26.67
2023-10-19T02:54:24.348Z,25.05
2023-10-19T02:57:00.227Z,27.13
2023-10-19T02:59:29.966Z,28.87
2023-10-19T03:02:02.800Z,28.35
2023-10-19T03:04:30.466Z,29.60
2023-10-19T05:39:52.930Z,27.65
2023-10-19T05:42:19.620Z,32.38
2023-10-19T05:44:46.103Z,28.15
2023-10-19T05:47:12.663Z,26.90
2023-10-19T05:49:39.192Z,28.57
2023-10-19T05:52:05.790Z,26.10
2023-10-19T05:54:32.492Z,31.83
2023-10-19T05:56:59.768Z,29.25
2023-10-19T05:59:27.756Z,29.95
2023-10-19T06:01:54.645Z,27.17
2023-10-19T06:04:22.041Z,30.20
2023-10-19T06:06:50.060Z,27.05
2023-10-19T06:09:18.209Z,28.15
2023-10-19T06:11:44.992Z,28.15
2023-10-19T06:14:11.683Z,28.43
2023-10-19T06:16:38.570Z,29.05
2023-10-19T06:19:05.654Z,28.08
2023-10-19T06:21:34.014Z,30.40
2023-10-19T06:24:00.704Z,30.92
2023-10-19T06:26:27.361Z,27.53
2023-10-19T06:28:58.440Z,34.60
2023-10-19T06:31:25.281Z,26.08
2023-10-19T06:33:51.920Z,30.08
2023-10-19T06:36:19.064Z,25.90
2023-10-19T06:38:46.143Z,26.80
2023-10-19T06:41:14.032Z,28.77
2023-10-19T06:43:41.180Z,26.73
2023-10-19T06:46:08.010Z,27.88
2023-10-19T06:48:34.615Z,25.83
2023-10-19T06:51:01.422Z,28.60
2023-10-19T06:53:27.969Z,27.27
2023-10-19T06:55:55.860Z,33.10
2023-10-19T06:58:22.475Z,29.92
2023-10-19T07:00:57.629Z,31.80
2023-10-19T07:03:24.550Z,28.47
2023-10-19T07:05:54.396Z,28.92
2023-10-19T07:08:22.451Z,31.70
2023-10-19T07:10:51.033Z,26.70
2023-10-19T07:13:18.238Z,28.17
2023-10-19T07:15:50.390Z,30.03
2023-10-19T07:18:17.336Z,26.33
2023-10-19T07:20:44.447Z,28.17
2023-10-19T07:23:20.092Z,29.73
2023-10-19T07:25:49.202Z,28.40
2023-10-19T07:28:17.337Z,27.13
2023-10-19T07:30:44.877Z,27.35
2023-10-19T07:33:18.579Z,26.95
2023-10-19T07:35:47.938Z,28.73
2023-10-19T07:38:18.078Z,32.08
2023-10-19T07:40:44.993Z,29.00
2023-10-19T07:43:11.603Z,27.75
2023-10-19T07:45:38.297Z,25.77
2023-10-19T07:48:11.814Z,26.67
2023-10-19T07:50:41.972Z,26.65
2023-10-19T07:53:10.310Z,26.17
2023-10-19T07:55:38.846Z,28.02
2023-10-19T07:58:06.073Z,29.17
2023-10-19T08:00:34.920Z,26.83
2023-10-19T08:03:01.739Z,26.92
2023-10-19T08:05:28.920Z,27.93
2023-10-19T08:07:55.638Z,26.23
2023-10-19T08:10:22.327Z,24.75
2023-10-19T08:12:49.894Z,31.58
2023-10-19T08:15:18.339Z,26.67
2023-10-19T08:17:47.762Z,26.30
2023-10-19T08:20:18.662Z,30.20
2023-10-19T08:22:47.914Z,27.63
2023-10-19T08:25:17.969Z,23.35
2023-10-19T08:27:51.041Z,22.15
2023-10-19T08:30:23.908Z,24.87
2023-10-19T08:32:53.031Z,24.80
2023-10-19T08:35:27.517Z,23.70
2023-10-19T08:37:56.190Z,24.93
2023-10-19T08:40:24.701Z,24.00
2023-10-19T08:42:52.064Z,23.73
2023-10-19T08:45:19.203Z,22.13
2023-10-19T08:48:02.069Z,22.92
2023-10-19T08:50:34.722Z,23.55
2023-10-19T08:53:06.234Z,24.58
2023-10-19T08:55:48.697Z,25.27
2023-10-19T08:58:20.687Z,24.52
2023-10-19T09:01:07.447Z,20.65
2023-10-19T09:03:34.187Z,21.70
2023-10-19T09:06:06.350Z,21.60
2023-10-19T09:08:42.223Z,22.60
2023-10-19T09:11:10.198Z,23.15
2023-10-19T09:13:50.033Z,22.90
2023-10-19T09:16:18.640Z,22.17
2023-10-19T09:18:48.246Z,23.77
2023-10-19T09:21:25.878Z,20.67
2023-10-19T09:23:54.306Z,22.33
2023-10-19T09:26:22.718Z,23.00
2023-10-19T09:28:51.412Z,21.92
2023-10-19T09:31:23.792Z,20.95
2023-10-19T09:33:50.331Z,22.43
2023-10-19T09:36:17.236Z,21.48
2023-10-19T09:38:52.483Z,24.67
2023-10-19T09:41:21.207Z,21.77
2023-10-19T09:43:50.478Z,21.58
2023-10-19T09:46:23.788Z,22.10
2023-10-19T09:48:50.747Z,21.45
2023-10-19T09:51:20.334Z,21.60
2023-10-19T09:53:52.605Z,20.88
2023-10-19T09:56:22.803Z,20.75
2023-10-19T09:58:56.560Z,19.20
2023-10-19T10:01:23.237Z,23.70
2023-10-19T10:03:54.446Z,18.92
2023-10-19T10:06:52.180Z,19.63
2023-10-19T10:09:25.159Z,23.48
2023-10-19T10:11:54.624Z,20.17
2023-10-19T10:14:25.494Z,18.77
2023-10-19T10:17:04.769Z,24.05
2023-10-19T10:19:31.986Z,20.35
2023-10-19T10:22:22.455Z,19.23
2023-10-19T10:24:58.348Z,21.00
2023-10-19T10:27:25.040Z,19.67
2023-10-19T10:30:07.716Z,17.23
2023-10-19T10:32:46.398Z,19.55
2023-10-19T10:35:42.135Z,20.48
2023-10-19T10:38:10.692Z,18.87
2023-10-19T10:41:03.933Z,22.73
2023-10-19T10:43:31.102Z,21.83
2023-10-19T10:46:08.666Z,20.45
2023-10-19T10:48:42.667Z,31.83
2023-10-19T10:51:32.316Z,22.07
2023-10-19T10:53:59.804Z,22.08
2023-10-19T10:56:26.516Z,19.23
2023-10-19T10:58:53.311Z,20.80
2023-10-19T11:01:30.989Z,20.52
2023-10-19T11:04:15.547Z,17.87
2023-10-19T11:06:52.790Z,22.20
2023-10-19T11:09:19.793Z,18.05
2023-10-19T11:11:47.380Z,20.50
2023-10-19T11:14:14.557Z,19.08
2023-10-19T11:16:41.531Z,23.17
2023-10-19T11:19:08.252Z,20.35
2023-10-19T11:21:35.474Z,21.83
2023-10-19T11:24:03.071Z,17.70
2023-10-19T11:26:30.331Z,18.77
2023-10-19T11:29:05.472Z,16.27
2023-10-19T11:31:42.645Z,19.27
2023-10-19T11:34:10.878Z,16.73
2023-10-19T11:36:38.002Z,24.75
2023-10-19T11:39:05.744Z,18.27
2023-10-19T11:41:32.270Z,20.47
2023-10-19T11:43:58.899Z,20.33
2023-10-19T11:46:26.781Z,20.52
2023-10-19T11:48:53.563Z,22.45
2023-10-19T11:51:20.492Z,16.58
2023-10-19T11:53:47.086Z,19.40
2023-10-19T11:56:17.186Z,18.65
2023-10-19T11:58:45.079Z,22.20
2023-10-19T12:01:15.104Z,19.70
2023-10-19T12:03:43.085Z,19.27
2023-10-19T12:06:11.362Z,23.47
2023-10-19T12:08:39.345Z,22.55
2023-10-19T12:11:16.360Z,20.70
2023-10-19T12:13:48.157Z,22.90
2023-10-19T12:16:20.876Z,18.77
2023-10-19T12:18:49.744Z,18.23
2023-10-19T12:21:19.167Z,18.50
2023-10-19T12:23:55.671Z,21.67
2023-10-19T12:26:22.316Z,19.88
2023-10-19T12:28:50.574Z,20.33
2023-10-19T12:31:20.495Z,21.13
2023-10-19T12:33:47.473Z,22.10
2023-10-19T12:36:29.392Z,19.33
2023-10-19T12:38:56.380Z,19.15
2023-10-19T12:41:23.279Z,20.92
2023-10-19T12:43:53.531Z,19.07
2023-10-19T12:46:20.768Z,19.35
2023-10-19T12:48:50.193Z,21.17
2023-10-19T12:51:19.434Z,21.65
2023-10-19T12:53:47.396Z,21.20
2023-10-19T12:56:14.244Z,21.40
2023-10-19T12:58:42.596Z,18.85
2023-10-19T13:01:17.389Z,22.20
2023-10-19T13:03:46.660Z,21.70
2023-10-19T13:06:14.850Z,18.98
2023-10-19T13:08:44.364Z,23.07
2023-10-19T13:11:17.358Z,22.75
2023-10-19T13:13:44.993Z,20.58
2023-10-19T13:16:11.685Z,24.15
2023-10-19T13:18:41.274Z,18.95
2023-10-19T13:21:10.668Z,17.43
2023-10-19T13:23:37.350Z,20.63
2023-10-19T13:26:18.341Z,31.88
2023-10-19T13:28:46.028Z,33.85
2023-10-19T13:31:15.138Z,22.60
2023-10-19T13:33:42.895Z,20.70
2023-10-19T13:36:09.956Z,16.25
2023-10-19T13:38:36.720Z,19.48
2023-10-19T13:41:11.349Z,19.10
2023-10-19T13:43:40.338Z,19.73
2023-10-19T13:46:07.204Z,18.37
2023-10-19T13:48:34.021Z,19.83
2023-10-19T13:51:14.051Z,20.58
2023-10-19T13:53:41.332Z,16.90
2023-10-19T13:56:11.977Z,17.67
2023-10-19T13:58:39.237Z,20.63
2023-10-19T14:01:13.281Z,17.23
2023-10-19T14:03:41.796Z,17.02
2023-10-19T14:06:18.199Z,20.00
2023-10-19T14:08:44.802Z,22.20
2023-10-19T14:11:12.529Z,21.97
2023-10-19T14:13:41.863Z,21.77
2023-10-19T14:16:09.596Z,18.95
2023-10-19T14:18:37.949Z,23.65
2023-10-19T14:21:15.905Z,22.90
2023-10-19T14:23:43.754Z,22.63
2023-10-19T14:26:11.515Z,20.52
2023-10-19T14:28:38.406Z,18.67
2023-10-19T14:31:05.419Z,19.45
2023-10-19T14:33:32.367Z,18.17
2023-10-19T14:35:58.869Z,21.20
2023-10-19T14:38:28.536Z,23.52
2023-10-19T14:40:55.100Z,25.45
2023-10-19T14:43:21.959Z,23.38
2023-10-19T14:45:48.559Z,19.98
2023-10-19T14:48:16.098Z,25.60
2023-10-19T14:53:41.861Z,24.30
2023-10-19T14:56:09.159Z,23.58
2023-10-19T14:58:35.887Z,21.23
2023-10-19T15:01:02.495Z,22.35
2023-10-19T15:03:30.144Z,24.93
2023-10-19T15:05:58.946Z,22.65
2023-10-19T15:08:27.891Z,22.80
2023-10-19T15:10:55.675Z,23.15
2023-10-19T15:13:22.645Z,20.65
2023-10-19T15:15:49.231Z,19.30
2023-10-19T15:18:15.822Z,22.92
2023-10-19T15:20:42.789Z,22.48
2023-10-19T15:23:09.526Z,23.55
2023-10-19T15:25:37.955Z,24.48
2023-10-19T15:28:05.962Z,23.13
2023-10-19T15:30:32.698Z,24.30
2023-10-19T15:32:59.273Z,23.92
2023-10-19T15:35:28.568Z,22.95
2023-10-19T15:37:56.297Z,22.38
2023-10-19T15:40:25.148Z,21.37
2023-10-19T15:42:54.763Z,22.80
2023-10-19T15:45:22.859Z,23.25
2023-10-19T15:47:53.097Z,20.73
2023-10-19T15:50:19.664Z,26.80
2023-10-19T15:52:46.496Z,21.40
2023-10-19T15:55:15.352Z,22.42
2023-10-19T15:57:43.155Z,24.52
2023-10-19T16:00:15.240Z,27.15
2023-10-19T16:02:43.538Z,29.33
2023-10-19T16:05:16.625Z,28.13
2023-10-19T16:07:44.364Z,23.88
2023-10-19T16:10:11.867Z,25.83
2023-10-19T16:12:40.208Z,28.42
2023-10-19T16:15:10.377Z,26.70
2023-10-19T16:17:38.104Z,26.93
2023-10-19T16:20:07.663Z,29.23
2023-10-19T16:22:35.033Z,26.77
2023-10-19T16:25:01.920Z,31.58
2023-10-19T16:27:28.817Z,32.92
2023-10-19T16:29:55.896Z,37.27
2023-10-19T16:32:23.662Z,30.83
2023-10-19T16:34:50.885Z,34.72
2023-10-19T16:37:18.634Z,32.95
2023-10-19T16:39:45.642Z,38.15
2023-10-19T16:42:12.939Z,38.80
2023-10-19T16:44:39.792Z,36.03
2023-10-19T16:47:06.989Z,37.88
2023-10-19T16:49:36.230Z,30.38
2023-10-19T16:52:03.227Z,34.88
2023-10-19T16:54:30.642Z,34.97
2023-10-19T16:56:57.980Z,35.45
2023-10-19T16:59:24.857Z,34.78
2023-10-19T17:01:51.567Z,40.92
2023-10-19T17:04:18.871Z,36.88
2023-10-19T17:06:46.463Z,32.17
2023-10-19T17:09:21.260Z,35.97
2023-10-19T17:11:49.573Z,36.13
2023-10-19T17:14:17.303Z,35.80
2023-10-19T17:16:45.662Z,37.08
2023-10-19T17:19:12.531Z,42.00
2023-10-19T17:21:43.676Z,29.92
2023-10-19T17:24:10.561Z,34.03
2023-10-19T17:26:37.124Z,48.83
2023-10-19T17:29:04.179Z,40.08
2023-10-19T17:31:30.859Z,34.37
2023-10-19T17:33:58.163Z,44.50
2023-10-19T17:36:25.536Z,32.55
2023-10-19T17:38:52.563Z,32.60
2023-10-19T17:41:20.894Z,39.28
2023-10-19T17:43:48.527Z,43.93
2023-10-19T17:46:16.134Z,48.00
2023-10-19T17:48:44.672Z,33.58
2023-10-19T17:51:12.620Z,34.17
2023-10-19T17:53:40.228Z,32.17
2023-10-19T17:56:07.743Z,32.60
2023-10-19T17:58:35.318Z,43.17
2023-10-19T18:01:06.511Z,42.88
2023-10-19T18:03:34.985Z,43.85
2023-10-19T18:06:02.744Z,36.92
2023-10-19T18:08:30.309Z,36.37
2023-10-19T18:10:57.701Z,37.30
2023-10-19T18:13:24.725Z,34.63
2023-10-19T18:15:53.464Z,43.47
2023-10-19T18:18:22.325Z,36.88
2023-10-19T18:20:49.328Z,35.37
2023-10-19T18:23:16.259Z,50.33
2023-10-19T18:25:43.789Z,35.47
2023-10-19T18:28:11.232Z,38.35
2023-10-19T18:30:38.150Z,37.53
2023-10-19T18:33:07.721Z,35.97
2023-10-19T18:35:35.884Z,37.03
2023-10-19T18:38:02.692Z,42.63
2023-10-19T18:40:34.898Z,36.35
2023-10-19T18:43:02.336Z,37.20
2023-10-19T18:45:28.967Z,38.23
2023-10-19T18:47:56.456Z,43.03
2023-10-19T18:52:53.719Z,44.17
2023-10-19T18:55:23.960Z,48.08
2023-10-19T18:57:51.341Z,44.17
2023-10-19T19:00:25.257Z,44.17
2023-10-19T19:02:53.060Z,56.00
2023-10-19T19:05:20.117Z,50.42
2023-10-19T19:07:47.345Z,45.42
2023-10-19T19:10:14.241Z,50.83
2023-10-19T19:12:40.954Z,61.33
2023-10-19T19:15:08.103Z,43.97
2023-10-19T19:17:34.767Z,58.55
2023-10-19T19:20:03.258Z,46.53
2023-10-19T19:22:32.523Z,41.53
2023-10-19T19:24:59.357Z,56.50
2023-10-19T19:27:26.011Z,52.95
2023-10-19T19:29:52.618Z,48.63
2023-10-19T19:32:19.228Z,52.05
2023-10-19T19:34:47.344Z,56.70
2023-10-19T19:37:14.674Z,47.95
2023-10-19T19:39:45.659Z,42.53
2023-10-19T19:42:12.782Z,53.25
2023-10-19T19:44:40.427Z,53.13
2023-10-19T19:47:07.696Z,48.40
2023-10-19T19:49:34.762Z,46.88
2023-10-19T19:52:02.786Z,59.47
2023-10-19T19:54:29.541Z,50.45
2023-10-19T19:56:56.167Z,51.22
2023-10-19T19:59:23.493Z,46.33
2023-10-19T20:01:50.603Z,47.35
2023-10-19T20:04:17.459Z,45.28
2023-10-19T20:06:44.140Z,50.35
2023-10-19T20:09:14.554Z,47.83
2023-10-19T20:11:41.773Z,70.47
2023-10-19T20:14:08.463Z,51.13
2023-10-19T20:16:35.491Z,48.13
2023-10-19T20:19:02.185Z,53.70
2023-10-19T20:21:32.982Z,70.47
2023-10-19T20:24:04.403Z,54.20
2023-10-19T20:26:30.951Z,48.67
2023-10-19T20:28:57.796Z,48.72
2023-10-19T20:31:27.497Z,56.97
2023-10-19T20:33:54.303Z,68.40
2023-10-19T20:36:20.934Z,56.13
2023-10-19T20:38:48.755Z,55.05
2023-10-19T20:41:15.451Z,56.25
2023-10-19T20:43:44.012Z,72.63
2023-10-19T20:46:10.813Z,51.53
2023-10-19T20:48:37.529Z,52.73
2023-10-19T20:51:06.840Z,49.38
2023-10-19T20:53:34.089Z,51.25
2023-10-19T20:56:01.899Z,52.75
2023-10-19T20:58:29.984Z,62.00
2023-10-19T21:00:56.577Z,61.77
2023-10-19T21:03:23.234Z,53.20
2023-10-19T21:05:49.927Z,48.67
2023-10-19T21:08:17.010Z,76.70
2023-10-19T21:10:43.674Z,54.90
2023-10-19T21:13:10.340Z,57.60
2023-10-19T21:15:36.857Z,51.85
2023-10-19T21:18:03.604Z,65.57
2023-10-19T21:20:30.236Z,59.60
2023-10-19T21:22:57.119Z,56.97
2023-10-19T21:25:26.609Z,52.77
2023-10-19T21:27:54.223Z,54.42
2023-10-19T21:30:20.799Z,52.25
2023-10-19T21:32:47.966Z,49.03
2023-10-19T21:35:16.331Z,62.40
2023-10-19T21:37:43.456Z,70.60
2023-10-19T21:40:12.353Z,57.13
2023-10-19T21:42:40.530Z,48.35
2023-10-19T21:45:09.239Z,39.67
2023-10-19T21:47:36.081Z,53.28
2023-10-19T21:50:05.841Z,61.37
2023-10-19T21:52:32.545Z,49.00
2023-10-19T21:54:59.124Z,48.45
2023-10-19T21:57:26.739Z,53.97
2023-10-19T21:59:53.670Z,49.30
2023-10-19T22:02:20.603Z,56.30
2023-10-19T22:04:47.334Z,64.10
2023-10-19T22:07:16.795Z,50.42
2023-10-19T22:09:43.668Z,73.07
2023-10-19T22:12:14.561Z,59.42
2023-10-19T22:14:42.139Z,59.13
2023-10-19T22:17:08.762Z,58.75
2023-10-19T22:19:35.363Z,48.80
2023-10-19T22:22:01.861Z,44.88
2023-10-19T22:24:29.473Z,44.17
2023-10-19T22:26:56.579Z,47.20
2023-10-19T22:29:23.349Z,53.90
2023-10-19T22:31:52.407Z,45.78
2023-10-19T22:34:19.935Z,54.08
2023-10-19T22:36:46.840Z,54.20
2023-10-19T22:39:13.763Z,63.47
2023-10-19T22:41:42.781Z,51.80
2023-10-19T22:44:09.668Z,56.50
2023-10-19T22:46:36.645Z,41.97
2023-10-19T22:49:03.453Z,43.33
2023-10-19T22:51:30.534Z,48.07
2023-10-19T22:53:58.415Z,44.05
2023-10-19T22:56:25.174Z,52.72
2023-10-19T22:58:55.214Z,41.47
2023-10-19T23:01:22.375Z,45.95
2023-10-19T23:03:49.172Z,43.10
2023-10-19T23:06:15.728Z,41.20
2023-10-19T23:08:42.920Z,40.35
2023-10-19T23:11:10.624Z,41.78
2023-10-19T23:13:42.589Z,46.53
2023-10-19T23:16:09.414Z,47.43
2023-10-19T23:18:38.521Z,42.90
2023-10-19T23:21:08.051Z,38.53
2023-10-19T23:23:35.694Z,41.20
2023-10-19T23:26:04.385Z,46.97
2023-10-19T23:28:34.658Z,45.60
2023-10-19T23:31:11.006Z,60.97
2023-10-19T23:33:37.920Z,49.05
2023-10-19T23:36:04.738Z,40.85
2023-10-19T23:38:31.255Z,41.45
2023-10-19T23:40:57.895Z,40.43
2023-10-19T23:43:25.636Z,46.85
2023-10-19T23:45:52.851Z,39.95
2023-10-19T23:48:21.279Z,48.38
2023-10-19T23:50:49.113Z,51.45
2023-10-19T23:53:17.513Z,47.20
2023-10-19T23:55:47.522Z,38.63
2023-10-19T23:58:15.567Z,31.42
